sensor_id;sensor_type;location;lat;lon;timestamp;pressure;altitude;pressure_sealevel;temperature
73734;BMP280;62039;50.000;9.064;2022-12-07T00:01:13;100491.06;;;3.02
73734;BMP280;62039;50.000;9.064;2022-12-07T00:03:42;100503.16;;;3.02
73734;BMP280;62039;50.000;9.064;2022-12-07T00:06:11;100501.50;;;3.01
73734;BMP280;62039;50.000;9.064;2022-12-07T00:08:38;100489.50;;;3.00
73734;BMP280;62039;50.000;9.064;2022-12-07T00:11:06;100494.69;;;3.00
73734;BMP280;62039;50.000;9.064;2022-12-07T00:13:33;100483.53;;;2.99
73734;BMP280;62039;50.000;9.064;2022-12-07T00:16:01;100481.03;;;2.98
73734;BMP280;62039;50.000;9.064;2022-12-07T00:18:28;100482.94;;;2.96
73734;BMP280;62039;50.000;9.064;2022-12-07T00:21:00;100482.94;;;2.96
73734;BMP280;62039;50.000;9.064;2022-12-07T00:23:26;100470.94;;;2.95
73734;BMP280;62039;50.000;9.064;2022-12-07T00:25:53;100479.63;;;2.94
73734;BMP280;62039;50.000;9.064;2022-12-07T00:28:19;100467.44;;;2.96
73734;BMP280;62039;50.000;9.064;2022-12-07T00:30:46;100458.78;;;2.97
73734;BMP280;62039;50.000;9.064;2022-12-07T00:33:13;100461.34;;;2.97
73734;BMP280;62039;50.000;9.064;2022-12-07T00:35:39;100458.88;;;2.95
73734;BMP280;62039;50.000;9.064;2022-12-07T00:38:07;100455.47;;;2.95
73734;BMP280;62039;50.000;9.064;2022-12-07T00:40:33;100466.81;;;2.92
73734;BMP280;62039;50.000;9.064;2022-12-07T00:43:00;100467.66;;;2.93
73734;BMP280;62039;50.000;9.064;2022-12-07T00:45:27;100464.97;;;2.94
73734;BMP280;62039;50.000;9.064;2022-12-07T00:47:53;100462.28;;;2.96
73734;BMP280;62039;50.000;9.064;2022-12-07T00:50:20;100455.38;;;2.96
73734;BMP280;62039;50.000;9.064;2022-12-07T00:52:46;100462.97;;;2.98
73734;BMP280;62039;50.000;9.064;2022-12-07T00:55:14;100453.47;;;2.98
73734;BMP280;62039;50.000;9.064;2022-12-07T00:57:41;100450.81;;;3.00
73734;BMP280;62039;50.000;9.064;2022-12-07T01:00:08;100444.72;;;3.01
73734;BMP280;62039;50.000;9.064;2022-12-07T01:02:35;100452.34;;;3.02
73734;BMP280;62039;50.000;9.064;2022-12-07T01:05:01;100451.53;;;3.02
73734;BMP280;62039;50.000;9.064;2022-12-07T01:07:28;100453.28;;;3.01
73734;BMP280;62039;50.000;9.064;2022-12-07T01:09:54;100449.88;;;3.01
73734;BMP280;62039;50.000;9.064;2022-12-07T01:12:22;100447.19;;;3.02
73734;BMP280;62039;50.000;9.064;2022-12-07T01:14:49;100455.03;;;3.01
73734;BMP280;62039;50.000;9.064;2022-12-07T01:17:15;100451.72;;;2.99
73734;BMP280;62039;50.000;9.064;2022-12-07T01:19:42;100447.50;;;2.98
73734;BMP280;62039;50.000;9.064;2022-12-07T01:22:08;100443.16;;;2.98
73734;BMP280;62039;50.000;9.064;2022-12-07T01:24:35;100444.91;;;2.98
73734;BMP280;62039;50.000;9.064;2022-12-07T01:27:01;100441.63;;;2.96
73734;BMP280;62039;50.000;9.064;2022-12-07T01:29:29;100440.91;;;2.94
73734;BMP280;62039;50.000;9.064;2022-12-07T01:31:56;100447.09;;;2.91
73734;BMP280;62039;50.000;9.064;2022-12-07T01:34:22;100443.59;;;2.92
73734;BMP280;62039;50.000;9.064;2022-12-07T01:36:49;100440.19;;;2.92
73734;BMP280;62039;50.000;9.064;2022-12-07T01:39:15;100450.50;;;2.92
73734;BMP280;62039;50.000;9.064;2022-12-07T01:41:42;100448.88;;;2.91
73734;BMP280;62039;50.000;9.064;2022-12-07T01:44:17;100443.72;;;2.91
73734;BMP280;62039;50.000;9.064;2022-12-07T01:46:46;100448.06;;;2.90
73734;BMP280;62039;50.000;9.064;2022-12-07T01:49:18;100451.47;;;2.91
73734;BMP280;62039;50.000;9.064;2022-12-07T01:51:46;100444.53;;;2.91
73734;BMP280;62039;50.000;9.064;2022-12-07T01:54:14;100437.75;;;2.90
73734;BMP280;62039;50.000;9.064;2022-12-07T01:56:46;100436.91;;;2.90
73734;BMP280;62039;50.000;9.064;2022-12-07T01:59:16;100437.75;;;2.90
73734;BMP280;62039;50.000;9.064;2022-12-07T02:01:45;100432.44;;;2.92
73734;BMP280;62039;50.000;9.064;2022-12-07T02:04:12;100444.31;;;2.94
73734;BMP280;62039;50.000;9.064;2022-12-07T02:06:38;100432.97;;;2.97
73734;BMP280;62039;50.000;9.064;2022-12-07T02:09:05;100421.59;;;2.99
73734;BMP280;62039;50.000;9.064;2022-12-07T02:11:32;100425.00;;;3.00
73734;BMP280;62039;50.000;9.064;2022-12-07T02:13:58;100432.72;;;3.00
73734;BMP280;62039;50.000;9.064;2022-12-07T02:16:31;100426.66;;;3.01
73734;BMP280;62039;50.000;9.064;2022-12-07T02:19:21;100436.03;;;3.02
73734;BMP280;62039;50.000;9.064;2022-12-07T02:21:52;100423.03;;;3.03
73734;BMP280;62039;50.000;9.064;2022-12-07T02:24:31;100418.56;;;3.05
73734;BMP280;62039;50.000;9.064;2022-12-07T02:27:32;100408.38;;;3.04
73734;BMP280;62039;50.000;9.064;2022-12-07T02:30:04;100416.72;;;3.07
73734;BMP280;62039;50.000;9.064;2022-12-07T02:32:40;100423.41;;;3.10
73734;BMP280;62039;50.000;9.064;2022-12-07T02:35:11;100417.34;;;3.11
73734;BMP280;62039;50.000;9.064;2022-12-07T02:37:41;100412.75;;;3.15
73734;BMP280;62039;50.000;9.064;2022-12-07T02:40:14;100409.97;;;3.18
73734;BMP280;62039;50.000;9.064;2022-12-07T02:42:46;100399.63;;;3.18
73734;BMP280;62039;50.000;9.064;2022-12-07T02:45:17;100405.41;;;3.21
73734;BMP280;62039;50.000;9.064;2022-12-07T02:47:45;100401.06;;;3.22
73734;BMP280;62039;50.000;9.064;2022-12-07T02:50:17;100398.38;;;3.23
73734;BMP280;62039;50.000;9.064;2022-12-07T02:52:44;100405.97;;;3.25
73734;BMP280;62039;50.000;9.064;2022-12-07T02:55:11;100396.47;;;3.25
73734;BMP280;62039;50.000;9.064;2022-12-07T02:57:49;100393.69;;;3.28
73734;BMP280;62039;50.000;9.064;2022-12-07T03:00:20;100391.09;;;3.28
73734;BMP280;62039;50.000;9.064;2022-12-07T03:02:51;100387.59;;;3.29
73734;BMP280;62039;50.000;9.064;2022-12-07T03:05:31;100385.75;;;3.31
73734;BMP280;62039;50.000;9.064;2022-12-07T03:08:06;100389.94;;;3.32
73734;BMP280;62039;50.000;9.064;2022-12-07T03:10:39;100380.56;;;3.31
73734;BMP280;62039;50.000;9.064;2022-12-07T03:13:09;100387.34;;;3.32
73734;BMP280;62039;50.000;9.064;2022-12-07T03:15:42;100383.00;;;3.33
73734;BMP280;62039;50.000;9.064;2022-12-07T03:18:13;100389.84;;;3.34
73734;BMP280;62039;50.000;9.064;2022-12-07T03:20:42;100389.00;;;3.33
73734;BMP280;62039;50.000;9.064;2022-12-07T03:23:10;100383.84;;;3.33
73734;BMP280;62039;50.000;9.064;2022-12-07T03:25:40;100392.31;;;3.35
73734;BMP280;62039;50.000;9.064;2022-12-07T03:28:08;100388.78;;;3.36
73734;BMP280;62039;50.000;9.064;2022-12-07T03:30:44;100390.44;;;3.37
73734;BMP280;62039;50.000;9.064;2022-12-07T03:33:16;100380.94;;;3.38
73734;BMP280;62039;50.000;9.064;2022-12-07T03:35:47;100374.94;;;3.37
73734;BMP280;62039;50.000;9.064;2022-12-07T03:38:18;100376.47;;;3.40
73734;BMP280;62039;50.000;9.064;2022-12-07T03:40:48;100372.13;;;3.40
73734;BMP280;62039;50.000;9.064;2022-12-07T03:43:19;100378.00;;;3.42
73734;BMP280;62039;50.000;9.064;2022-12-07T03:45:58;100378.84;;;3.43
73734;BMP280;62039;50.000;9.064;2022-12-07T03:48:32;100373.56;;;3.44
73734;BMP280;62039;50.000;9.064;2022-12-07T03:51:03;100377.78;;;3.45
73734;BMP280;62039;50.000;9.064;2022-12-07T03:53:35;100375.19;;;3.45
73734;BMP280;62039;50.000;9.064;2022-12-07T03:56:03;100379.41;;;3.46
73734;BMP280;62039;50.000;9.064;2022-12-07T03:58:31;100372.50;;;3.47
73734;BMP280;62039;50.000;9.064;2022-12-07T04:01:00;100370.75;;;3.47
73734;BMP280;62039;50.000;9.064;2022-12-07T04:03:26;100375.81;;;3.49
73734;BMP280;62039;50.000;9.064;2022-12-07T04:05:53;100363.72;;;3.49
73734;BMP280;62039;50.000;9.064;2022-12-07T04:08:19;100361.97;;;3.50
73734;BMP280;62039;50.000;9.064;2022-12-07T04:10:46;100366.28;;;3.49
73734;BMP280;62039;50.000;9.064;2022-12-07T04:13:13;100364.53;;;3.50
73734;BMP280;62039;50.000;9.064;2022-12-07T04:15:39;100368.88;;;3.49
73734;BMP280;62039;50.000;9.064;2022-12-07T04:18:07;100365.38;;;3.50
73734;BMP280;62039;50.000;9.064;2022-12-07T04:20:34;100362.06;;;3.48
73734;BMP280;62039;50.000;9.064;2022-12-07T04:23:00;100361.25;;;3.48
73734;BMP280;62039;50.000;9.064;2022-12-07T04:25:27;100357.84;;;3.47
73734;BMP280;62039;50.000;9.064;2022-12-07T04:27:53;100362.06;;;3.48
73734;BMP280;62039;50.000;9.064;2022-12-07T04:30:20;100364.53;;;3.50
73734;BMP280;62039;50.000;9.064;2022-12-07T04:32:47;100357.63;;;3.50
73734;BMP280;62039;50.000;9.064;2022-12-07T04:35:15;100360.19;;;3.50
73734;BMP280;62039;50.000;9.064;2022-12-07T04:37:41;100359.38;;;3.50
73734;BMP280;62039;50.000;9.064;2022-12-07T04:40:09;100359.28;;;3.51
73734;BMP280;62039;50.000;9.064;2022-12-07T04:42:35;100366.78;;;3.55
73734;BMP280;62039;50.000;9.064;2022-12-07T04:45:02;100365.13;;;3.53
73734;BMP280;62039;50.000;9.064;2022-12-07T04:47:29;100365.13;;;3.53
73734;BMP280;62039;50.000;9.064;2022-12-07T04:49:55;100358.09;;;3.56
73734;BMP280;62039;50.000;9.064;2022-12-07T04:52:23;100358.09;;;3.56
73734;BMP280;62039;50.000;9.064;2022-12-07T04:54:50;100362.31;;;3.57
73734;BMP280;62039;50.000;9.064;2022-12-07T04:57:16;100361.41;;;3.58
73734;BMP280;62039;50.000;9.064;2022-12-07T04:59:43;100357.84;;;3.59
73734;BMP280;62039;50.000;9.064;2022-12-07T05:02:11;100358.69;;;3.59
73734;BMP280;62039;50.000;9.064;2022-12-07T05:04:38;100352.69;;;3.59
73734;BMP280;62039;50.000;9.064;2022-12-07T05:07:05;100351.88;;;3.58
73734;BMP280;62039;50.000;9.064;2022-12-07T05:09:32;100355.41;;;3.57
73734;BMP280;62039;50.000;9.064;2022-12-07T05:11:59;100353.66;;;3.58
73734;BMP280;62039;50.000;9.064;2022-12-07T05:14:25;100353.84;;;3.55
73734;BMP280;62039;50.000;9.064;2022-12-07T05:16:52;100350.56;;;3.52
73734;BMP280;62039;50.000;9.064;2022-12-07T05:19:19;100349.88;;;3.50
73734;BMP280;62039;50.000;9.064;2022-12-07T05:21:46;100353.50;;;3.48
73734;BMP280;62039;50.000;9.064;2022-12-07T05:24:13;100355.25;;;3.47
73734;BMP280;62039;50.000;9.064;2022-12-07T05:26:41;100353.59;;;3.46
73734;BMP280;62039;50.000;9.064;2022-12-07T05:29:10;100346.78;;;3.45
73734;BMP280;62039;50.000;9.064;2022-12-07T05:31:37;100350.31;;;3.44
73734;BMP280;62039;50.000;9.064;2022-12-07T05:34:04;100351.13;;;3.45
73734;BMP280;62039;50.000;9.064;2022-12-07T05:36:30;100348.69;;;3.43
73734;BMP280;62039;50.000;9.064;2022-12-07T05:38:57;100347.03;;;3.42
73734;BMP280;62039;50.000;9.064;2022-12-07T05:41:24;100347.25;;;3.39
73734;BMP280;62039;50.000;9.064;2022-12-07T05:43:52;100352.53;;;3.38
73734;BMP280;62039;50.000;9.064;2022-12-07T05:46:18;100344.19;;;3.34
73734;BMP280;62039;50.000;9.064;2022-12-07T05:48:45;100350.28;;;3.33
73734;BMP280;62039;50.000;9.064;2022-12-07T05:51:11;100353.78;;;3.32
73734;BMP280;62039;50.000;9.064;2022-12-07T05:53:38;100354.03;;;3.29
73734;BMP280;62039;50.000;9.064;2022-12-07T05:56:05;100353.09;;;3.30
73734;BMP280;62039;50.000;9.064;2022-12-07T05:58:32;100355.69;;;3.30
73734;BMP280;62039;50.000;9.064;2022-12-07T06:01:00;100349.59;;;3.31
73734;BMP280;62039;50.000;9.064;2022-12-07T06:03:26;100350.38;;;3.32
73734;BMP280;62039;50.000;9.064;2022-12-07T06:05:53;100352.84;;;3.33
73734;BMP280;62039;50.000;9.064;2022-12-07T06:08:19;100357.09;;;3.34
73734;BMP280;62039;50.000;9.064;2022-12-07T06:10:47;100354.41;;;3.36
73734;BMP280;62039;50.000;9.064;2022-12-07T06:13:13;100352.53;;;3.38
73734;BMP280;62039;50.000;9.064;2022-12-07T06:15:40;100354.06;;;3.40
73734;BMP280;62039;50.000;9.064;2022-12-07T06:18:08;100348.88;;;3.40
73734;BMP280;62039;50.000;9.064;2022-12-07T06:20:34;100343.72;;;3.40
73734;BMP280;62039;50.000;9.064;2022-12-07T06:23:01;100349.72;;;3.41
73734;BMP280;62039;50.000;9.064;2022-12-07T06:25:27;100353.00;;;3.43
73734;BMP280;62039;50.000;9.064;2022-12-07T06:27:54;100352.19;;;3.42
73734;BMP280;62039;50.000;9.064;2022-12-07T06:30:20;100351.25;;;3.43
73734;BMP280;62039;50.000;9.064;2022-12-07T06:32:47;100348.69;;;3.43
73734;BMP280;62039;50.000;9.064;2022-12-07T06:35:15;100351.94;;;3.45
73734;BMP280;62039;50.000;9.064;2022-12-07T06:37:41;100356.19;;;3.46
73734;BMP280;62039;50.000;9.064;2022-12-07T06:40:09;100363.72;;;3.49
73734;BMP280;62039;50.000;9.064;2022-12-07T06:42:35;100361.97;;;3.50
73734;BMP280;62039;50.000;9.064;2022-12-07T06:45:02;100363.47;;;3.52
73734;BMP280;62039;50.000;9.064;2022-12-07T06:47:29;100355.63;;;3.54
73734;BMP280;62039;50.000;9.064;2022-12-07T06:50:12;100355.50;;;3.56
73734;BMP280;62039;50.000;9.064;2022-12-07T06:52:40;100359.63;;;3.58
73734;BMP280;62039;50.000;9.064;2022-12-07T06:55:07;100355.16;;;3.60
73734;BMP280;62039;50.000;9.064;2022-12-07T06:57:33;100359.38;;;3.61
73734;BMP280;62039;50.000;9.064;2022-12-07T07:00:00;100360.22;;;3.62
73734;BMP280;62039;50.000;9.064;2022-12-07T07:02:28;100359.28;;;3.63
73734;BMP280;62039;50.000;9.064;2022-12-07T07:04:54;100355.78;;;3.64
73734;BMP280;62039;50.000;9.064;2022-12-07T07:07:21;100358.22;;;3.65
73734;BMP280;62039;50.000;9.064;2022-12-07T07:09:49;100364.22;;;3.66
73734;BMP280;62039;50.000;9.064;2022-12-07T07:12:15;100364.09;;;3.67
73734;BMP280;62039;50.000;9.064;2022-12-07T07:14:42;100367.50;;;3.68
73734;BMP280;62039;50.000;9.064;2022-12-07T07:17:08;100366.56;;;3.69
73734;BMP280;62039;50.000;9.064;2022-12-07T07:19:35;100370.00;;;3.69
73734;BMP280;62039;50.000;9.064;2022-12-07T07:22:02;100369.16;;;3.69
73734;BMP280;62039;50.000;9.064;2022-12-07T07:24:28;100375.03;;;3.71
73734;BMP280;62039;50.000;9.064;2022-12-07T07:26:56;100379.25;;;3.72
73734;BMP280;62039;50.000;9.064;2022-12-07T07:29:23;100374.91;;;3.72
73734;BMP280;62039;50.000;9.064;2022-12-07T07:31:49;100380.91;;;3.73
73734;BMP280;62039;50.000;9.064;2022-12-07T07:34:16;100380.00;;;3.74
73734;BMP280;62039;50.000;9.064;2022-12-07T07:36:42;100380.72;;;3.76
73734;BMP280;62039;50.000;9.064;2022-12-07T07:39:09;100378.13;;;3.76
73734;BMP280;62039;50.000;9.064;2022-12-07T07:41:36;100378.03;;;3.77
73734;BMP280;62039;50.000;9.064;2022-12-07T07:44:04;100377.88;;;3.79
73734;BMP280;62039;50.000;9.064;2022-12-07T07:46:30;100375.31;;;3.79
73734;BMP280;62039;50.000;9.064;2022-12-07T07:48:57;100380.47;;;3.79
73734;BMP280;62039;50.000;9.064;2022-12-07T07:51:23;100383.88;;;3.79
73734;BMP280;62039;50.000;9.064;2022-12-07T07:53:50;100383.78;;;3.81
73734;BMP280;62039;50.000;9.064;2022-12-07T07:56:17;100388.00;;;3.82
73734;BMP280;62039;50.000;9.064;2022-12-07T07:58:43;100390.59;;;3.82
73734;BMP280;62039;50.000;9.064;2022-12-07T08:01:11;100385.31;;;3.83
73734;BMP280;62039;50.000;9.064;2022-12-07T08:03:38;100387.78;;;3.85
73734;BMP280;62039;50.000;9.064;2022-12-07T08:06:05;100384.25;;;3.86
73734;BMP280;62039;50.000;9.064;2022-12-07T08:08:31;100395.31;;;3.88
73734;BMP280;62039;50.000;9.064;2022-12-07T08:10:58;100386.63;;;3.89
73734;BMP280;62039;50.000;9.064;2022-12-07T08:13:24;100382.28;;;3.89
73734;BMP280;62039;50.000;9.064;2022-12-07T08:15:56;100381.44;;;3.89
73734;BMP280;62039;50.000;9.064;2022-12-07T08:18:24;100379.56;;;3.91
73734;BMP280;62039;50.000;9.064;2022-12-07T08:20:51;100380.41;;;3.92
73734;BMP280;62039;50.000;9.064;2022-12-07T08:23:17;100381.19;;;3.92
73734;BMP280;62039;50.000;9.064;2022-12-07T08:25:44;100376.16;;;3.90
73734;BMP280;62039;50.000;9.064;2022-12-07T08:28:10;100383.78;;;3.92
73734;BMP280;62039;50.000;9.064;2022-12-07T08:30:37;100383.78;;;3.92
73734;BMP280;62039;50.000;9.064;2022-12-07T08:33:03;100379.31;;;3.94
73734;BMP280;62039;50.000;9.064;2022-12-07T08:35:32;100380.16;;;3.95
73734;BMP280;62039;50.000;9.064;2022-12-07T08:37:59;100376.75;;;3.94
73734;BMP280;62039;50.000;9.064;2022-12-07T08:40:26;100378.38;;;3.95
73734;BMP280;62039;50.000;9.064;2022-12-07T08:42:52;100380.03;;;3.96
73734;BMP280;62039;50.000;9.064;2022-12-07T08:45:20;100383.44;;;3.97
73734;BMP280;62039;50.000;9.064;2022-12-07T08:47:54;100384.28;;;3.97
73734;BMP280;62039;50.000;9.064;2022-12-07T08:50:22;100388.53;;;3.98
73734;BMP280;62039;50.000;9.064;2022-12-07T08:52:54;100381.59;;;3.99
73734;BMP280;62039;50.000;9.064;2022-12-07T08:55:21;100382.38;;;3.99
73734;BMP280;62039;50.000;9.064;2022-12-07T08:57:48;100387.34;;;4.02
73734;BMP280;62039;50.000;9.064;2022-12-07T09:00:15;100382.06;;;4.04
73734;BMP280;62039;50.000;9.064;2022-12-07T09:02:43;100377.56;;;4.06
73734;BMP280;62039;50.000;9.064;2022-12-07T09:05:09;100391.22;;;4.08
73734;BMP280;62039;50.000;9.064;2022-12-07T09:07:43;100381.59;;;4.10
73734;BMP280;62039;50.000;9.064;2022-12-07T09:10:12;100391.81;;;4.11
73734;BMP280;62039;50.000;9.064;2022-12-07T09:12:39;100392.63;;;4.12
73734;BMP280;62039;50.000;9.064;2022-12-07T09:15:06;100392.38;;;4.15
73734;BMP280;62039;50.000;9.064;2022-12-07T09:17:33;100396.53;;;4.17
73734;BMP280;62039;50.000;9.064;2022-12-07T09:20:00;100392.03;;;4.19
73734;BMP280;62039;50.000;9.064;2022-12-07T09:22:28;100392.75;;;4.21
73734;BMP280;62039;50.000;9.064;2022-12-07T09:24:55;100393.47;;;4.23
73734;BMP280;62039;50.000;9.064;2022-12-07T09:27:23;100397.56;;;4.26
73734;BMP280;62039;50.000;9.064;2022-12-07T09:29:49;100394.75;;;4.29
73734;BMP280;62039;50.000;9.064;2022-12-07T09:32:16;100402.41;;;4.30
73734;BMP280;62039;50.000;9.064;2022-12-07T09:34:43;100391.81;;;4.34
73734;BMP280;62039;50.000;9.064;2022-12-07T09:37:09;100399.44;;;4.35
73734;BMP280;62039;50.000;9.064;2022-12-07T09:39:39;100395.81;;;4.38
73734;BMP280;62039;50.000;9.064;2022-12-07T09:42:28;100394.75;;;4.40
73734;BMP280;62039;50.000;9.064;2022-12-07T09:44:55;100386.75;;;4.43
73734;BMP280;62039;50.000;9.064;2022-12-07T09:47:22;100394.41;;;4.45
73734;BMP280;62039;50.000;9.064;2022-12-07T09:49:49;100390.72;;;4.47
73734;BMP280;62039;50.000;9.064;2022-12-07T09:52:24;100383.56;;;4.51
73734;BMP280;62039;50.000;9.064;2022-12-07T09:54:51;100388.63;;;4.52
73734;BMP280;62039;50.000;9.064;2022-12-07T09:57:22;100380.72;;;4.54
73734;BMP280;62039;50.000;9.064;2022-12-07T10:00:00;100376.28;;;4.56
73734;BMP280;62039;50.000;9.064;2022-12-07T10:02:35;100383.81;;;4.59
73734;BMP280;62039;50.000;9.064;2022-12-07T10:05:04;100379.44;;;4.59
73734;BMP280;62039;50.000;9.064;2022-12-07T10:07:32;100369.91;;;4.60
73734;BMP280;62039;50.000;9.064;2022-12-07T10:09:59;100371.56;;;4.61
73734;BMP280;62039;50.000;9.064;2022-12-07T10:12:29;100369.78;;;4.61
73734;BMP280;62039;50.000;9.064;2022-12-07T10:15:00;100368.75;;;4.64
73734;BMP280;62039;50.000;9.064;2022-12-07T10:17:36;100373.09;;;4.63
73734;BMP280;62039;50.000;9.064;2022-12-07T10:20:18;100368.75;;;4.64
73734;BMP280;62039;50.000;9.064;2022-12-07T10:23:01;100369.78;;;4.61
73734;BMP280;62039;50.000;9.064;2022-12-07T10:25:29;100363.78;;;4.61
73734;BMP280;62039;50.000;9.064;2022-12-07T10:28:17;100356.72;;;4.63
73734;BMP280;62039;50.000;9.064;2022-12-07T10:30:52;100357.31;;;4.66
73734;BMP280;62039;50.000;9.064;2022-12-07T10:33:34;100348.59;;;4.67
73734;BMP280;62039;50.000;9.064;2022-12-07T10:36:16;100352.72;;;4.70
73734;BMP280;62039;50.000;9.064;2022-12-07T10:38:45;100356.03;;;4.72
73734;BMP280;62039;50.000;9.064;2022-12-07T10:41:12;100354.13;;;4.74
73734;BMP280;62039;50.000;9.064;2022-12-07T10:43:46;100362.34;;;4.79
73734;BMP280;62039;50.000;9.064;2022-12-07T10:46:53;100362.09;;;4.82
73734;BMP280;62039;50.000;9.064;2022-12-07T10:52:45;100353.16;;;4.86
73734;BMP280;62039;50.000;9.064;2022-12-07T10:55:21;100351.03;;;4.91
73734;BMP280;62039;50.000;9.064;2022-12-07T10:58:21;100337.00;;;4.94
73734;BMP280;62039;50.000;9.064;2022-12-07T11:00:56;100341.00;;;4.98
73734;BMP280;62039;50.000;9.064;2022-12-07T11:03:39;100337.31;;;5.00
73734;BMP280;62039;50.000;9.064;2022-12-07T11:06:20;100338.72;;;5.04
73734;BMP280;62039;50.000;9.064;2022-12-07T11:09:00;100347.66;;;5.12
73734;BMP280;62039;50.000;9.064;2022-12-07T11:11:33;100329.28;;;5.15
73734;BMP280;62039;50.000;9.064;2022-12-07T11:14:08;100325.53;;;5.19
73734;BMP280;62039;50.000;9.064;2022-12-07T11:16:49;100322.56;;;5.23
73734;BMP280;62039;50.000;9.064;2022-12-07T11:19:40;100316.97;;;5.28
73734;BMP280;62039;50.000;9.064;2022-12-07T11:22:14;100314.16;;;5.31
73734;BMP280;62039;50.000;9.064;2022-12-07T11:24:49;100314.59;;;5.36
73734;BMP280;62039;50.000;9.064;2022-12-07T11:27:24;100309.16;;;5.39
73734;BMP280;62039;50.000;9.064;2022-12-07T11:30:13;100309.84;;;5.41
73734;BMP280;62039;50.000;9.064;2022-12-07T11:32:55;100302.66;;;5.44
73734;BMP280;62039;50.000;9.064;2022-12-07T11:35:32;100293.94;;;5.45
73734;BMP280;62039;50.000;9.064;2022-12-07T11:38:07;100298.03;;;5.48
73734;BMP280;62039;50.000;9.064;2022-12-07T11:40:36;100288.25;;;5.52
73734;BMP280;62039;50.000;9.064;2022-12-07T11:43:06;100297.50;;;5.54
73734;BMP280;62039;50.000;9.064;2022-12-07T11:45:35;100287.72;;;5.58
73734;BMP280;62039;50.000;9.064;2022-12-07T11:48:10;100289.09;;;5.62
73734;BMP280;62039;50.000;9.064;2022-12-07T11:50:41;100285.44;;;5.64
73734;BMP280;62039;50.000;9.064;2022-12-07T11:53:15;100287.75;;;5.67
73734;BMP280;62039;50.000;9.064;2022-12-07T11:55:47;100282.56;;;5.67
73734;BMP280;62039;50.000;9.064;2022-12-07T11:58:22;100282.72;;;5.66
73734;BMP280;62039;50.000;9.064;2022-12-07T12:00:55;100273.19;;;5.66
73734;BMP280;62039;50.000;9.064;2022-12-07T12:03:31;100273.19;;;5.66
73734;BMP280;62039;50.000;9.064;2022-12-07T12:06:02;100273.84;;;5.68
73734;BMP280;62039;50.000;9.064;2022-12-07T12:08:31;100266.78;;;5.70
73734;BMP280;62039;50.000;9.064;2022-12-07T12:11:29;100270.06;;;5.72
73734;BMP280;62039;50.000;9.064;2022-12-07T12:20:06;100256.53;;;5.69
73734;BMP280;62039;50.000;9.064;2022-12-07T12:22:44;100257.34;;;5.69
73734;BMP280;62039;50.000;9.064;2022-12-07T12:25:20;100256.28;;;5.72
73734;BMP280;62039;50.000;9.064;2022-12-07T12:27:48;100259.69;;;5.72
73734;BMP280;62039;50.000;9.064;2022-12-07T12:30:26;100254.50;;;5.72
73734;BMP280;62039;50.000;9.064;2022-12-07T12:33:02;100245.91;;;5.72
73734;BMP280;62039;50.000;9.064;2022-12-07T12:35:33;100249.06;;;5.75
73734;BMP280;62039;50.000;9.064;2022-12-07T12:38:30;100249.63;;;5.79
73734;BMP280;62039;50.000;9.064;2022-12-07T12:40:57;100245.94;;;5.81
73734;BMP280;62039;50.000;9.064;2022-12-07T12:43:47;100251.94;;;5.82
73734;BMP280;62039;50.000;9.064;2022-12-07T12:46:48;100244.16;;;5.82
73734;BMP280;62039;50.000;9.064;2022-12-07T12:49:37;100246.50;;;5.85
73734;BMP280;62039;50.000;9.064;2022-12-07T12:55:20;100240.91;;;5.89
73734;BMP280;62039;50.000;9.064;2022-12-07T12:58:30;100238.22;;;5.91
73734;BMP280;62039;50.000;9.064;2022-12-07T13:04:02;100219.78;;;5.94
73734;BMP280;62039;50.000;9.064;2022-12-07T13:06:35;100222.94;;;5.98
73734;BMP280;62039;50.000;9.064;2022-12-07T13:09:02;100218.44;;;6.00
73734;BMP280;62039;50.000;9.064;2022-12-07T13:11:32;100212.03;;;6.04
73734;BMP280;62039;50.000;9.064;2022-12-07T13:17:03;100223.63;;;6.00
73734;BMP280;62039;50.000;9.064;2022-12-07T13:19:57;100215.16;;;5.98
73734;BMP280;62039;50.000;9.064;2022-12-07T13:22:51;100217.06;;;5.96
73734;BMP280;62039;50.000;9.064;2022-12-07T13:25:22;100204.09;;;5.96
73734;BMP280;62039;50.000;9.064;2022-12-07T13:27:57;100210.09;;;5.96
73734;BMP280;62039;50.000;9.064;2022-12-07T13:30:24;100207.38;;;5.98
73734;BMP280;62039;50.000;9.064;2022-12-07T13:32:52;100210.78;;;5.98
73734;BMP280;62039;50.000;9.064;2022-12-07T13:35:32;100208.19;;;5.98
73734;BMP280;62039;50.000;9.064;2022-12-07T13:38:01;100199.59;;;5.98
73734;BMP280;62039;50.000;9.064;2022-12-07T13:40:28;100205.72;;;5.97
73734;BMP280;62039;50.000;9.064;2022-12-07T13:43:01;100203.00;;;5.98
73734;BMP280;62039;50.000;9.064;2022-12-07T13:45:29;100207.38;;;5.98
73734;BMP280;62039;50.000;9.064;2022-12-07T13:47:58;100209.84;;;5.99
73734;BMP280;62039;50.000;9.064;2022-12-07T13:50:27;100207.13;;;6.01
73734;BMP280;62039;50.000;9.064;2022-12-07T13:52:55;100211.50;;;6.00
73734;BMP280;62039;50.000;9.064;2022-12-07T13:55:22;100210.66;;;6.00
73734;BMP280;62039;50.000;9.064;2022-12-07T13:57:51;100206.16;;;6.02
73734;BMP280;62039;50.000;9.064;2022-12-07T14:00:21;100201.66;;;6.04
73734;BMP280;62039;50.000;9.064;2022-12-07T14:02:55;100196.47;;;6.04
73734;BMP280;62039;50.000;9.064;2022-12-07T14:05:25;100201.66;;;6.04
73734;BMP280;62039;50.000;9.064;2022-12-07T14:07:54;100206.84;;;6.04
73734;BMP280;62039;50.000;9.064;2022-12-07T14:10:26;100214.09;;;6.00
73734;BMP280;62039;50.000;9.064;2022-12-07T14:12:52;100212.00;;;5.94
73734;BMP280;62039;50.000;9.064;2022-12-07T14:15:22;100222.06;;;5.87
73734;BMP280;62039;50.000;9.064;2022-12-07T14:17:50;100215.81;;;5.80
73734;BMP280;62039;50.000;9.064;2022-12-07T14:20:30;100223.13;;;5.75
73734;BMP280;62039;50.000;9.064;2022-12-07T14:22:57;100219.88;;;5.73
73734;BMP280;62039;50.000;9.064;2022-12-07T14:25:25;100216.31;;;5.74
73734;BMP280;62039;50.000;9.064;2022-12-07T14:27:54;100231.84;;;5.74
73734;BMP280;62039;50.000;9.064;2022-12-07T14:30:24;100211.94;;;5.75
73734;BMP280;62039;50.000;9.064;2022-12-07T14:32:54;100223.97;;;5.76
73734;BMP280;62039;50.000;9.064;2022-12-07T14:35:21;100212.63;;;5.77
73734;BMP280;62039;50.000;9.064;2022-12-07T14:37:48;100205.69;;;5.77
73734;BMP280;62039;50.000;9.064;2022-12-07T14:40:17;100208.97;;;5.79
73734;BMP280;62039;50.000;9.064;2022-12-07T14:42:45;100200.38;;;5.79
73734;BMP280;62039;50.000;9.064;2022-12-07T14:45:14;100207.34;;;5.78